Time;durP1;ratioP1;P1;durP2;ratioP2;P2;SDS_P1;SDS_P2;PMS_P1;PMS_P2;Temp;Humidity;BMP_temperature;BMP_pressure;BME280_temperature;BME280_humidity;BME280_pressure;Samples;Min_cycle;Max_cycle;Signal;HPM_P1;HPM_P2
2022/01/02 00:01:44;;;;;;;3.63;2.05;;;18.30;90.70;;;;;;5114782;28;20027;-80
2022/01/02 00:04:17;;;;;;;4.65;2.53;;;18.30;90.80;;;;;;5096127;28;20394;-80
2022/01/02 00:06:51;;;;;;;4.93;2.35;;;18.30;90.80;;;;;;5114452;28;20041;-80
2022/01/02 00:09:34;;;;;;;4.07;2.20;;;18.30;90.80;;;;;;5096185;28;20055;-81
2022/01/02 00:12:07;;;;;;;5.50;2.40;;;18.20;90.80;;;;;;5114239;28;20086;-80
2022/01/02 00:14:35;;;;;;;4.13;2.22;;;18.20;90.80;;;;;;5114248;28;20104;-81
2022/01/02 00:17:06;;;;;;;3.67;2.17;;;18.20;90.90;;;;;;5095821;28;20023;-80
2022/01/02 00:19:33;;;;;;;3.35;2.10;;;18.20;90.90;;;;;;5113919;28;20031;-80
2022/01/02 00:22:06;;;;;;;4.38;2.90;;;18.20;90.90;;;;;;5114040;28;20383;-79
2022/01/02 00:24:32;;;;;;;3.92;2.63;;;18.20;90.90;;;;;;5113969;28;20016;-81
2022/01/02 00:26:58;;;;;;;4.82;2.58;;;18.10;90.90;;;;;;5095502;28;20036;-81
2022/01/02 00:29:25;;;;;;;7.75;2.67;;;18.10;90.90;;;;;;5113807;28;20054;-80
2022/01/02 00:31:52;;;;;;;3.53;2.30;;;18.10;90.90;;;;;;5113640;28;20030;-79
2022/01/02 00:34:18;;;;;;;5.82;3.08;;;18.10;90.90;;;;;;5113820;28;20023;-77
2022/01/02 00:36:44;;;;;;;5.28;2.60;;;18.10;90.90;;;;;;5113927;28;20047;-79
2022/01/02 00:39:09;;;;;;;4.22;2.30;;;18.00;90.80;;;;;;5113632;28;20039;-79
2022/01/02 00:41:48;;;;;;;4.15;2.15;;;18.00;90.80;;;;;;5113647;28;20028;-78
2022/01/02 00:44:32;;;;;;;3.88;1.92;;;18.10;90.90;;;;;;5113726;28;20042;-79
2022/01/02 00:47:05;;;;;;;4.40;2.30;;;18.00;90.90;;;;;;5094888;28;20144;-79
2022/01/02 00:49:37;;;;;;;6.65;2.47;;;18.00;90.90;;;;;;5113462;28;20020;-80
2022/01/02 00:52:06;;;;;;;3.67;2.25;;;18.00;90.90;;;;;;5113446;28;20071;-78
2022/01/02 00:54:33;;;;;;;3.40;2.25;;;17.90;90.90;;;;;;5113379;28;20023;-79
2022/01/02 00:57:05;;;;;;;3.28;2.08;;;17.90;90.80;;;;;;5113141;28;20031;-80
2022/01/02 00:59:44;;;;;;;3.30;1.98;;;17.90;90.90;;;;;;5095156;28;20378;-80
2022/01/02 01:02:18;;;;;;;3.50;2.00;;;17.90;90.80;;;;;;5113046;28;20470;-79
2022/01/02 01:04:46;;;;;;;4.15;2.33;;;17.90;90.90;;;;;;5113454;28;20020;-78
2022/01/02 01:07:13;;;;;;;4.45;2.42;;;17.90;90.80;;;;;;5112920;28;20030;-79
2022/01/02 01:09:40;;;;;;;4.25;2.40;;;17.90;90.80;;;;;;5113039;28;20028;-79
2022/01/02 01:12:10;;;;;;;4.97;2.40;;;17.90;90.80;;;;;;5113124;28;20019;-79
2022/01/02 01:14:35;;;;;;;6.53;2.67;;;17.90;90.90;;;;;;5113097;28;20032;-80
2022/01/02 01:17:01;;;;;;;3.72;2.17;;;17.80;90.80;;;;;;5113046;28;20031;-80
2022/01/02 01:19:27;;;;;;;4.45;2.67;;;17.80;90.80;;;;;;5112877;28;20475;-81
2022/01/02 01:21:53;;;;;;;5.40;2.60;;;17.80;90.80;;;;;;5112702;28;20031;-81
2022/01/02 01:24:20;;;;;;;4.68;2.65;;;17.80;90.80;;;;;;5113138;28;20089;-80
2022/01/02 01:26:47;;;;;;;6.32;2.63;;;17.80;90.90;;;;;;5112976;28;20471;-81
2022/01/02 01:29:13;;;;;;;3.58;2.58;;;17.80;90.90;;;;;;5112730;28;20026;-81
2022/01/02 01:31:38;;;;;;;5.45;2.28;;;17.80;90.90;;;;;;5112757;28;20102;-80
2022/01/02 01:34:04;;;;;;;3.20;1.88;;;17.70;90.90;;;;;;5112532;28;20054;-79
2022/01/02 01:36:30;;;;;;;4.70;2.60;;;17.70;90.90;;;;;;5112585;28;20027;-80
2022/01/02 01:38:55;;;;;;;4.18;2.33;;;17.70;91.20;;;;;;5112610;28;20039;-80
2022/01/02 01:41:35;;;;;;;4.35;2.47;;;17.70;90.90;;;;;;5112497;28;20027;-80
2022/01/02 01:44:21;;;;;;;3.08;1.95;;;17.70;90.90;;;;;;5112393;28;20110;-80
2022/01/02 01:46:51;;;;;;;3.38;1.90;;;17.70;90.90;;;;;;5112765;28;20059;-80
2022/01/02 01:49:19;;;;;;;4.20;2.72;;;17.60;90.80;;;;;;5112848;28;20028;-80
2022/01/02 01:51:45;;;;;;;4.15;2.45;;;17.70;90.80;;;;;;5112541;28;20406;-80
2022/01/02 01:54:11;;;;;;;4.72;2.42;;;17.70;90.80;;;;;;5112386;28;20043;-79
2022/01/02 01:56:37;;;;;;;5.35;2.47;;;17.70;90.80;;;;;;5112338;28;20028;-80
2022/01/02 01:59:04;;;;;;;4.28;2.13;;;17.60;90.80;;;;;;5094071;28;20030;-79
2022/01/02 02:01:29;;;;;;;4.95;2.65;;;17.60;90.80;;;;;;5112190;28;20020;-79
2022/01/02 02:03:57;;;;;;;3.35;2.13;;;17.60;90.80;;;;;;5112254;28;20493;-80
2022/01/02 02:06:23;;;;;;;5.78;2.63;;;17.60;90.80;;;;;;5112153;28;20110;-79
2022/01/02 02:08:51;;;;;;;6.20;2.65;;;17.60;90.80;;;;;;5112108;28;20020;-80
2022/01/02 02:11:17;;;;;;;10.50;2.67;;;17.50;90.80;;;;;;5112327;28;20053;-79
2022/01/02 02:13:44;;;;;;;4.75;2.10;;;17.60;90.90;;;;;;5112151;28;20102;-80
2022/01/02 02:16:10;;;;;;;4.40;2.40;;;17.50;90.90;;;;;;5112079;28;20380;-80
2022/01/02 02:18:36;;;;;;;3.72;2.60;;;17.60;90.90;;;;;;5093787;28;20420;-81
2022/01/02 02:21:02;;;;;;;3.95;2.30;;;17.50;90.90;;;;;;5112110;28;20035;-80
2022/01/02 02:23:28;;;;;;;6.40;2.80;;;17.50;90.90;;;;;;5112106;28;20049;-80
2022/01/02 02:25:53;;;;;;;4.75;2.40;;;17.50;90.90;;;;;;5112058;28;20027;-79
2022/01/02 02:28:19;;;;;;;4.30;2.38;;;17.50;91.20;;;;;;5112459;28;20031;-79
2022/01/02 02:30:47;;;;;;;4.72;2.63;;;17.50;90.90;;;;;;5112051;28;20028;-79
2022/01/02 02:33:14;;;;;;;3.85;2.28;;;17.50;90.90;;;;;;5112017;28;20078;-79
2022/01/02 02:35:42;;;;;;;4.07;2.40;;;17.50;90.90;;;;;;5111931;28;20520;-80
2022/01/02 02:38:09;;;;;;;4.60;2.22;;;17.40;90.90;;;;;;5111944;28;20023;-79
2022/01/02 02:40:36;;;;;;;3.95;2.40;;;17.40;91.00;;;;;;5111961;28;20028;-79
2022/01/02 02:43:08;;;;;;;3.58;2.00;;;17.40;91.00;;;;;;5111930;28;20027;-80
2022/01/02 02:51:12;;;;;;;3.45;2.47;;;17.40;91.00;;;;;;5112047;28;20066;-80
2022/01/02 02:53:41;;;;;;;3.58;2.08;;;17.40;90.90;;;;;;5111736;28;20547;-79
2022/01/02 02:56:21;;;;;;;4.40;2.00;;;17.40;90.90;;;;;;5111896;28;20032;-79
2022/01/02 02:58:52;;;;;;;4.00;2.20;;;17.40;90.90;;;;;;5112445;28;20583;-79
2022/01/02 03:01:19;;;;;;;3.97;2.60;;;17.40;90.90;;;;;;5112153;28;20028;-79
2022/01/02 03:03:46;;;;;;;5.00;2.03;;;17.50;90.90;;;;;;5111566;28;20051;-79
2022/01/02 03:06:13;;;;;;;4.25;2.38;;;17.50;90.90;;;;;;5111576;28;20039;-80
2022/01/02 03:08:41;;;;;;;4.28;2.35;;;17.50;90.90;;;;;;5111708;28;20026;-79
2022/01/02 03:11:10;;;;;;;5.10;2.70;;;17.50;90.90;;;;;;5111550;28;20546;-79
2022/01/02 03:13:36;;;;;;;4.13;2.35;;;17.50;90.90;;;;;;5093435;28;20069;-79
2022/01/02 03:16:02;;;;;;;3.08;2.00;;;17.50;90.90;;;;;;5111478;28;20055;-80
2022/01/02 03:18:27;;;;;;;4.28;2.15;;;17.50;90.90;;;;;;5111478;28;20062;-80
2022/01/02 03:20:53;;;;;;;5.28;2.88;;;17.50;90.90;;;;;;5111578;28;20039;-80
2022/01/02 03:23:18;;;;;;;3.95;2.35;;;17.50;91.20;;;;;;5115405;28;20479;-81
2022/01/02 03:25:44;;;;;;;3.25;2.15;;;17.50;90.90;;;;;;5115122;28;20464;-79
2022/01/02 03:28:10;;;;;;;4.43;2.13;;;17.50;90.90;;;;;;5115034;28;20023;-80
2022/01/02 03:30:35;;;;;;;3.70;2.30;;;17.50;90.80;;;;;;5115090;28;20020;-79
2022/01/02 03:33:01;;;;;;;4.13;2.28;;;17.50;90.80;;;;;;5114974;28;20031;-80
2022/01/02 03:35:27;;;;;;;3.67;1.90;;;17.50;90.80;;;;;;5114928;28;20017;-80
2022/01/02 03:37:53;;;;;;;3.38;2.05;;;17.50;90.80;;;;;;5114909;28;20027;-79
2022/01/02 03:40:18;;;;;;;3.33;2.20;;;17.60;90.90;;;;;;5115107;28;20024;-80
2022/01/02 03:42:44;;;;;;;7.20;2.40;;;17.60;90.90;;;;;;5114828;28;20530;-80
2022/01/02 03:45:10;;;;;;;2.78;2.00;;;17.60;90.90;;;;;;5114724;28;20035;-80
2022/01/02 03:47:36;;;;;;;5.30;2.20;;;17.50;90.90;;;;;;5096381;28;20043;-80
2022/01/02 03:50:04;;;;;;;4.35;2.28;;;17.50;90.90;;;;;;5096368;28;20023;-79
2022/01/02 03:52:30;;;;;;;4.45;2.35;;;17.60;90.90;;;;;;5114612;28;20031;-79
2022/01/02 03:54:57;;;;;;;4.47;2.25;;;17.60;90.90;;;;;;5114515;28;20089;-78
2022/01/02 03:57:23;;;;;;;2.95;1.98;;;17.50;90.90;;;;;;5114893;28;20038;-79
2022/01/02 03:59:49;;;;;;;4.28;2.40;;;17.60;90.90;;;;;;5114719;28;20028;-79
2022/01/02 04:02:14;;;;;;;4.40;2.33;;;17.60;90.90;;;;;;5114298;28;20081;-79
2022/01/02 04:04:40;;;;;;;2.85;2.05;;;17.60;90.80;;;;;;5114402;28;20088;-79
2022/01/02 04:07:06;;;;;;;5.20;2.33;;;17.60;90.90;;;;;;5114287;28;20032;-79
2022/01/02 04:09:31;;;;;;;4.75;2.50;;;17.60;90.80;;;;;;5114334;28;20026;-79
2022/01/02 04:11:57;;;;;;;3.10;1.85;;;17.60;90.80;;;;;;5114271;28;20081;-79
2022/01/02 04:14:23;;;;;;;6.25;2.25;;;17.60;90.80;;;;;;5114492;28;20106;-79
2022/01/02 04:16:49;;;;;;;4.15;2.00;;;17.60;90.80;;;;;;5114502;28;20058;-79
2022/01/02 04:19:14;;;;;;;4.03;2.10;;;17.60;90.80;;;;;;5114113;28;20059;-79
2022/01/02 04:21:40;;;;;;;3.58;2.40;;;17.60;90.80;;;;;;5114003;28;20024;-79
2022/01/02 04:24:06;;;;;;;3.58;2.33;;;17.60;90.80;;;;;;5114087;28;20024;-80
2022/01/02 04:26:32;;;;;;;4.28;2.25;;;17.60;90.80;;;;;;5113919;28;20027;-79
2022/01/02 04:28:57;;;;;;;3.38;2.20;;;17.70;90.80;;;;;;5113969;28;20408;-79
2022/01/02 04:31:24;;;;;;;4.40;2.30;;;17.60;90.80;;;;;;5114091;28;20035;-80
2022/01/02 04:33:50;;;;;;;2.83;2.08;;;17.60;90.70;;;;;;5113671;28;20020;-79
2022/01/02 04:36:15;;;;;;;3.47;2.13;;;17.60;90.70;;;;;;5113768;28;20038;-79
2022/01/02 04:38:42;;;;;;;3.63;2.47;;;17.60;90.70;;;;;;5113796;28;20023;-79
2022/01/02 04:41:08;;;;;;;4.63;2.33;;;17.60;90.70;;;;;;5113667;28;20027;-79
2022/01/02 04:43:34;;;;;;;3.53;2.17;;;17.60;90.70;;;;;;5113541;28;20027;-79
2022/01/02 04:46:00;;;;;;;4.30;2.20;;;17.70;90.70;;;;;;5113490;28;20038;-79
2022/01/02 04:48:26;;;;;;;2.72;1.80;;;17.70;90.70;;;;;;5113578;28;20024;-79
2022/01/02 04:50:51;;;;;;;3.42;2.22;;;17.60;90.70;;;;;;5113773;28;20019;-78
2022/01/02 04:53:17;;;;;;;3.97;1.90;;;17.70;90.70;;;;;;5095157;28;20024;-78
2022/01/02 04:55:43;;;;;;;4.13;2.40;;;17.70;90.70;;;;;;5113371;28;20047;-79
2022/01/02 04:58:09;;;;;;;4.63;2.20;;;17.70;90.70;;;;;;5113324;28;20031;-80
2022/01/02 05:00:35;;;;;;;2.00;1.40;;;17.70;90.70;;;;;;5113312;28;20028;-79
2022/01/02 05:03:00;;;;;;;2.75;1.67;;;17.70;90.70;;;;;;5113195;28;20514;-79
2022/01/02 05:05:26;;;;;;;3.53;1.98;;;17.70;90.70;;;;;;5113273;28;20376;-79
2022/01/02 05:07:52;;;;;;;4.30;2.22;;;17.70;91.00;;;;;;5113512;28;20043;-80
2022/01/02 05:10:17;;;;;;;4.88;2.15;;;17.70;90.70;;;;;;5113069;28;20022;-80
2022/01/02 05:12:43;;;;;;;3.70;2.05;;;17.70;90.70;;;;;;5113154;28;20031;-80
2022/01/02 05:15:09;;;;;;;3.58;2.17;;;17.70;90.70;;;;;;5112993;28;20020;-80
2022/01/02 05:17:35;;;;;;;3.35;2.08;;;17.70;90.60;;;;;;5113002;28;20020;-79
2022/01/02 05:20:01;;;;;;;4.40;2.17;;;17.70;90.60;;;;;;5113088;28;20034;-80
2022/01/02 05:22:27;;;;;;;4.78;2.38;;;17.70;90.60;;;;;;5094572;28;20035;-79
2022/01/02 05:24:52;;;;;;;4.20;2.28;;;17.70;90.60;;;;;;5113103;28;20038;-79
2022/01/02 05:27:18;;;;;;;4.18;2.38;;;17.80;90.60;;;;;;5112681;28;20123;-79
2022/01/02 05:29:43;;;;;;;4.00;2.30;;;17.80;90.60;;;;;;5112768;28;20026;-79
2022/01/02 05:32:09;;;;;;;3.67;2.03;;;17.70;90.60;;;;;;5112672;28;20421;-80
2022/01/02 05:34:35;;;;;;;5.10;2.40;;;17.70;90.60;;;;;;5112671;28;20031;-79
2022/01/02 05:37:00;;;;;;;3.33;2.08;;;17.70;90.60;;;;;;5112594;28;20027;-79
2022/01/02 05:39:26;;;;;;;4.88;2.22;;;17.70;90.60;;;;;;5112629;28;20053;-78
2022/01/02 05:41:52;;;;;;;4.32;1.98;;;17.70;90.50;;;;;;5112899;28;20035;-80
2022/01/02 05:44:18;;;;;;;5.10;1.90;;;17.70;90.50;;;;;;5111608;28;20035;-79
2022/01/02 05:46:45;;;;;;;3.85;1.95;;;17.80;90.50;;;;;;5112449;28;20039;-79
2022/01/02 05:49:11;;;;;;;3.53;1.88;;;17.80;90.50;;;;;;5112498;28;20364;-79
2022/01/02 05:51:37;;;;;;;3.33;1.98;;;17.80;90.50;;;;;;5112394;28;20057;-79
2022/01/02 05:54:04;;;;;;;3.35;1.67;;;17.70;90.40;;;;;;5112440;28;20022;-79
2022/01/02 05:56:30;;;;;;;2.83;1.80;;;17.70;90.40;;;;;;5112419;28;20027;-80
2022/01/02 05:58:55;;;;;;;7.55;2.28;;;17.70;90.40;;;;;;5112593;28;20032;-79
2022/01/02 06:01:21;;;;;;;4.05;1.80;;;17.80;90.40;;;;;;5112439;28;20024;-79
2022/01/02 06:03:47;;;;;;;3.47;2.05;;;17.70;90.40;;;;;;5112389;28;20027;-78
2022/01/02 06:06:12;;;;;;;4.05;1.90;;;17.80;90.40;;;;;;5112242;28;20031;-79
2022/01/02 06:08:38;;;;;;;4.95;2.20;;;17.70;90.30;;;;;;5112188;28;20050;-79
2022/01/02 06:11:04;;;;;;;2.75;1.98;;;17.70;90.30;;;;;;5112137;28;20489;-79
2022/01/02 06:13:29;;;;;;;3.17;2.10;;;17.70;90.30;;;;;;5112144;28;20110;-79
2022/01/02 06:15:55;;;;;;;4.18;2.00;;;17.70;90.30;;;;;;5112361;28;20103;-79
2022/01/02 06:18:21;;;;;;;3.53;1.85;;;17.70;90.20;;;;;;5112113;28;20035;-79
2022/01/02 06:20:46;;;;;;;3.28;1.95;;;17.70;90.20;;;;;;5112224;28;20046;-79
2022/01/02 06:23:12;;;;;;;4.30;2.00;;;17.70;90.20;;;;;;5112205;28;20024;-79
2022/01/02 06:25:37;;;;;;;3.42;1.88;;;17.70;90.20;;;;;;5093950;28;20019;-79
2022/01/02 06:28:03;;;;;;;3.90;2.30;;;17.70;90.20;;;;;;5111957;28;20031;-79
2022/01/02 06:30:30;;;;;;;3.10;2.00;;;17.70;90.10;;;;;;5112041;28;20076;-79
2022/01/02 06:32:55;;;;;;;4.85;2.25;;;17.70;90.10;;;;;;5112385;28;20031;-79
2022/01/02 06:35:23;;;;;;;2.40;1.88;;;17.70;90.10;;;;;;5111974;28;20031;-79
2022/01/02 06:37:49;;;;;;;4.22;2.00;;;17.70;90.10;;;;;;5111932;28;20076;-79
2022/01/02 06:40:15;;;;;;;4.82;2.30;;;17.70;90.00;;;;;;5093647;28;20028;-78
2022/01/02 06:42:40;;;;;;;3.17;2.20;;;17.70;90.00;;;;;;5111925;28;20012;-79
2022/01/02 06:45:07;;;;;;;4.05;2.20;;;17.70;90.00;;;;;;5111604;28;20067;-79
2022/01/02 06:47:32;;;;;;;3.50;2.22;;;17.70;90.00;;;;;;5111721;28;20111;-80
2022/01/02 06:49:58;;;;;;;4.15;2.28;;;17.70;89.90;;;;;;5111896;28;20051;-78
2022/01/02 06:52:23;;;;;;;4.18;2.17;;;17.70;89.80;;;;;;5112055;28;20032;-79
2022/01/02 06:54:53;;;;;;;3.10;2.13;;;17.70;89.80;;;;;;5111837;28;20058;-80
2022/01/02 06:57:20;;;;;;;3.22;2.22;;;17.70;89.80;;;;;;5115549;28;20111;-79
2022/01/02 06:59:45;;;;;;;3.75;2.17;;;17.70;89.60;;;;;;5115670;28;20455;-79
2022/01/02 07:02:11;;;;;;;4.25;2.33;;;17.70;89.60;;;;;;5115603;28;20016;-79
2022/01/02 07:04:36;;;;;;;3.25;2.00;;;17.70;89.50;;;;;;5115580;28;20081;-79
2022/01/02 07:07:02;;;;;;;4.90;2.40;;;17.70;89.50;;;;;;5115550;28;20398;-80
2022/01/02 07:09:30;;;;;;;3.28;1.85;;;17.60;89.40;;;;;;5115465;28;20066;-79
2022/01/02 07:11:55;;;;;;;4.40;2.40;;;17.70;89.40;;;;;;5115658;28;20500;-79
2022/01/02 07:14:23;;;;;;;7.18;2.72;;;17.60;89.40;;;;;;5115289;28;20053;-79
2022/01/02 07:16:48;;;;;;;4.97;2.25;;;17.70;89.40;;;;;;5115405;28;20026;-79
2022/01/02 07:19:14;;;;;;;5.45;2.35;;;17.70;89.30;;;;;;5115372;28;20028;-79
2022/01/02 07:21:40;;;;;;;3.80;2.20;;;17.60;89.30;;;;;;5115278;28;20019;-80
2022/01/02 07:24:05;;;;;;;3.60;2.20;;;17.60;89.20;;;;;;5115200;28;20020;-79
2022/01/02 07:26:31;;;;;;;4.78;2.05;;;17.60;89.10;;;;;;5115100;28;20036;-80
2022/01/02 07:28:56;;;;;;;3.47;2.20;;;17.70;89.20;;;;;;5115467;28;20111;-80
2022/01/02 07:31:22;;;;;;;4.10;2.15;;;;;;;;;;5115118;28;20470;-78
2022/01/02 07:33:48;;;;;;;2.92;1.80;;;;;;;;;;5096789;28;20024;-79
2022/01/02 07:36:14;;;;;;;2.90;1.92;;;;;;;;;;5114982;28;20030;-81
2022/01/02 07:38:40;;;;;;;3.67;2.10;;;;;;;;;;5114971;28;20455;-80
2022/01/02 07:41:06;;;;;;;7.13;2.50;;;;;;;;;;5114747;28;20024;-80
2022/01/02 07:43:32;;;;;;;5.13;2.35;;;;;;;;;;5114695;28;20024;-80
2022/01/02 07:45:58;;;;;;;5.20;2.75;;;;;;;;;;5114924;28;20054;-82
2022/01/02 07:48:24;;;;;;;4.00;2.00;;;;;;;;;;5115073;28;20379;-83
2022/01/02 07:50:50;;;;;;;4.43;2.33;;;;;;;;;;5114608;28;20153;-79
2022/01/02 07:53:16;;;;;;;3.15;1.90;;;;;;;;;;5114647;28;20140;-79
2022/01/02 07:55:43;;;;;;;4.75;2.63;;;;;;;;;;5114494;28;20391;-79
2022/01/02 07:58:09;;;;;;;4.15;2.10;;;;;;;;;;5114561;28;20031;-81
2022/01/02 08:00:35;;;;;;;3.45;1.90;;;;;;;;;;5114567;28;20024;-81
2022/01/02 08:03:01;;;;;;;4.65;2.60;;;;;;;;;;5114380;28;20102;-82
2022/01/02 08:05:27;;;;;;;13.02;3.10;;;;;;;;;;5114620;28;20030;-81
2022/01/02 08:07:55;;;;;;;4.43;2.30;;;;;;;;;;5113480;28;20035;-82
2022/01/02 08:10:21;;;;;;;4.72;2.22;;;;;;;;;;5114120;28;20028;-80
2022/01/02 08:12:47;;;;;;;4.63;2.50;;;;;;;;;;5114254;28;20027;-79
2022/01/02 08:15:13;;;;;;;3.90;2.10;;;;;;;;;;5114220;28;20027;-82
2022/01/02 08:17:39;;;;;;;4.28;2.20;;;;;;;;;;5114172;28;20095;-80
2022/01/02 08:20:05;;;;;;;4.88;2.58;;;;;;;;;;5114128;28;20505;-79
2022/01/02 08:22:31;;;;;;;4.55;2.40;;;;;;;;;;5114071;28;20023;-79
2022/01/02 08:24:57;;;;;;;5.20;2.50;;;;;;;;;;5114337;28;20034;-79
2022/01/02 08:27:23;;;;;;;4.38;2.50;;;;;;;;;;5113849;28;20394;-78
2022/01/02 08:29:49;;;;;;;3.70;2.28;;;;;;;;;;5113947;28;20027;-80
2022/01/02 08:32:15;;;;;;;3.42;2.60;;;;;;;;;;5113846;28;20027;-80
2022/01/02 08:34:41;;;;;;;5.95;2.53;;;;;;;;;;5113853;28;20020;-79
2022/01/02 08:37:07;;;;;;;3.25;2.30;;;;;;;;;;5113726;28;20028;-78
2022/01/02 08:39:33;;;;;;;3.30;2.38;;;;;;;;;;5113795;28;20024;-79
2022/01/02 08:41:59;;;;;;;4.72;2.35;;;;;;;;;;5113908;28;20106;-78
2022/01/02 08:44:25;;;;;;;4.13;1.98;;;;;;;;;;5113864;28;20124;-79
2022/01/02 08:46:51;;;;;;;3.53;2.25;;;;;;;;;;5113566;28;20536;-80
2022/01/02 08:49:18;;;;;;;5.05;2.60;;;;;;;;;;5113642;28;20391;-79
2022/01/02 08:51:44;;;;;;;5.50;2.47;;;;;;;;;;5095116;28;20387;-80
2022/01/02 08:54:10;;;;;;;5.45;2.53;;;;;;;;;;5116285;28;20024;-79
2022/01/02 08:56:36;;;;;;;4.78;2.45;;;;;;;;;;5113393;28;20034;-79
2022/01/02 08:59:02;;;;;;;17.13;6.07;;;;;;;;;;5095040;28;20055;-78
2022/01/02 09:01:28;;;;;;;6.68;4.75;;;;;;;;;;5113318;28;20450;-80
2022/01/02 09:03:54;;;;;;;7.55;4.45;;;;;;;;;;5113183;28;20024;-80
2022/01/02 09:06:20;;;;;;;5.68;4.05;;;;;;;;;;5112862;28;20548;-80
2022/01/02 09:08:46;;;;;;;7.80;4.07;;;;;;;;;;5112959;28;20020;-79
2022/01/02 09:11:12;;;;;;;7.20;3.92;;;;;;;;;;5112872;28;20023;-79
2022/01/02 09:13:38;;;;;;;8.93;3.90;;;;;;;;;;5113067;28;20077;-78
2022/01/02 09:16:04;;;;;;;8.57;3.78;;;;;;;;;;5094497;28;20399;-79
2022/01/02 09:18:31;;;;;;;5.60;3.25;;;;;;;;;;5113232;28;20019;-77
2022/01/02 09:20:57;;;;;;;6.15;3.63;;;;;;;;;;5112916;28;20069;-77
2022/01/02 09:23:23;;;;;;;6.50;3.67;;;;;;;;;;5112797;28;20023;-79
2022/01/02 09:25:49;;;;;;;4.93;3.38;;;;;;;;;;5112261;28;20032;-77
2022/01/02 09:28:15;;;;;;;11.38;5.25;;;;;;;;;;5112781;28;20556;-78
2022/01/02 09:30:41;;;;;;;7.07;4.18;;;;;;;;;;5112693;28;20030;-84
2022/01/02 09:33:08;;;;;;;9.50;4.85;;;;;;;;;;5112614;28;20390;-78
2022/01/02 09:35:35;;;;;;;8.55;4.63;;;;;;;;;;5112558;28;20115;-77
2022/01/02 09:38:01;;;;;;;9.68;4.40;;;;;;;;;;5112724;28;20031;-77
2022/01/02 09:40:28;;;;;;;11.40;5.45;;;;;;;;;;5112955;28;20030;-78
2022/01/02 09:42:58;;;;;;;7.95;4.25;;;;;;;;;;5094212;28;20391;-79
2022/01/02 09:45:24;;;;;;;7.00;4.68;;;;;;;;;;5112437;28;20027;-79
2022/01/02 09:47:51;;;;;;;9.07;4.13;;;;;;;;;;5112421;28;20033;-75
2022/01/02 09:50:18;;;;;;;10.15;4.35;;;19.20;85.40;;;;;;5112205;28;20563;-77
2022/01/02 09:52:45;;;;;;;12.43;3.60;;;;;;;;;;5112450;28;20053;-78
2022/01/02 09:55:11;;;;;;;8.23;3.40;;;;;;;;;;5112240;28;20045;-77
2022/01/02 09:57:44;;;;;;;5.88;3.67;;;;;;;;;;5112255;28;20027;-77
2022/01/02 10:00:10;;;;;;;6.00;3.00;;;;;;;;;;5094191;28;20085;-77
2022/01/02 10:02:55;;;;;;;7.07;3.03;;;;;;;;;;5112141;28;20024;-76
2022/01/02 10:05:24;;;;;;;5.20;2.83;;;;;;;;;;5112364;28;20073;-75
2022/01/02 10:07:50;;;;;;;6.55;3.15;;;;;;;;;;5112113;28;20038;-77
2022/01/02 10:10:16;;;;;;;9.05;3.03;;;;;;;;;;5112084;28;20391;-78
2022/01/02 10:12:42;;;;;;;6.32;2.78;;;;;;;;;;5112081;28;20028;-76
2022/01/02 10:15:14;;;;;;;7.53;2.67;;;;;;;;;;5093884;28;20023;-78
2022/01/02 10:18:13;;;;;;;5.80;2.40;;;;;;;;;;5112140;28;20036;-77
2022/01/02 10:20:41;;;;;;;8.52;3.00;;;;;;;;;;5039383;28;20030;-77
2022/01/02 10:23:07;;;;;;;5.82;2.88;;;;;;;;;;5092320;28;20061;-77
2022/01/02 10:25:42;;;;;;;5.70;2.72;;;;;;;;;;5111539;28;20031;-77
2022/01/02 10:28:20;;;;;;;4.80;2.65;;;;;;;;;;5111880;28;20107;-76
2022/01/02 10:30:47;;;;;;;7.00;2.95;;;;;;;;;;5113446;28;20020;-77
2022/01/02 10:33:13;;;;;;;6.82;2.90;;;;;;;;;;5115770;28;20434;-77
2022/01/02 10:35:40;;;;;;;6.60;2.95;;;;;;;;;;5115853;28;20024;-77
2022/01/02 10:38:06;;;;;;;5.90;2.95;;;;;;;;;;5115900;28;20031;-77
2022/01/02 10:40:32;;;;;;;8.93;2.95;;;;;;;;;;5116062;28;20076;-77
2022/01/02 10:43:00;;;;;;;4.65;2.55;;;;;;;;;;5116299;28;20016;-76
2022/01/02 10:45:33;;;;;;;6.70;2.58;;;;;;;;;;5115652;28;20032;-77
2022/01/02 10:48:00;;;;;;;5.90;3.08;;;;;;;;;;5116116;28;20036;-77
2022/01/02 10:50:26;;;;;;;5.18;2.92;;;;;;;;;;5115813;28;20098;-77
2022/01/02 10:52:52;;;;;;;5.78;2.55;;;;;;;;;;5115686;28;20034;-78
2022/01/02 10:55:22;;;;;;;4.07;2.42;;;;;;;;;;5097393;28;20024;-78
2022/01/02 10:57:50;;;;;;;7.07;3.13;;;;;;;;;;5097247;28;20399;-78
2022/01/02 11:00:17;;;;;;;6.13;2.67;;;;;;;;;;5115746;28;20530;-77
2022/01/02 11:02:44;;;;;;;4.97;2.78;;;;;;;;;;5097233;28;20024;-77
2022/01/02 11:05:16;;;;;;;5.60;2.65;;;18.80;86.80;;;;;;5115657;28;20102;-77
2022/01/02 11:07:47;;;;;;;7.90;2.88;;;18.70;87.50;;;;;;5097153;28;20074;-78
2022/01/02 11:10:15;;;;;;;5.30;2.58;;;18.70;87.60;;;;;;5115539;28;20530;-77
2022/01/02 11:12:42;;;;;;;4.53;2.15;;;18.70;87.80;;;;;;5115382;28;20069;-77
2022/01/02 11:15:13;;;;;;;3.92;2.03;;;18.70;87.80;;;;;;5115405;28;20020;-77
2022/01/02 11:17:39;;;;;;;6.40;2.72;;;18.60;87.70;;;;;;5115292;28;20027;-77
2022/01/02 11:20:13;;;;;;;5.25;2.42;;;18.60;87.40;;;;;;5115566;28;20423;-78
2022/01/02 11:22:42;;;;;;;4.75;2.28;;;18.60;87.60;;;;;;5115191;28;20551;-77
2022/01/02 11:25:13;;;;;;;4.95;2.45;;;18.60;87.00;;;;;;5115214;28;20031;-78
2022/01/02 11:27:44;;;;;;;6.15;2.40;;;;;;;;;;5096624;28;20039;-77
2022/01/02 11:30:33;;;;;;;4.53;2.33;;;;;;;;;;5115044;28;20466;-78
2022/01/02 11:33:00;;;;;;;8.38;2.28;;;;;;;;;;5102405;28;20035;-77
2022/01/02 11:35:27;;;;;;;5.45;2.33;;;;;;;;;;5096647;28;20024;-77
2022/01/02 11:37:56;;;;;;;3.85;2.17;;;;;;;;;;5115118;28;20430;-77
2022/01/02 11:40:42;;;;;;;4.53;2.00;;;;;;;;;;5114849;28;20463;-77
2022/01/02 11:43:08;;;;;;;4.70;2.33;;;;;;;;;;5113614;28;20089;-78
2022/01/02 11:45:40;;;;;;;5.60;2.22;;;;;;;;;;5114915;28;20051;-77
2022/01/02 11:48:25;;;;;;;3.67;2.17;;;;;;;;;;5114666;28;20089;-76
2022/01/02 11:50:52;;;;;;;5.57;1.85;;;;;;;;;;5114670;28;20036;-77
2022/01/02 11:53:23;;;;;;;4.70;2.40;;;;;;;;;;5096168;28;20020;-76
2022/01/02 11:55:50;;;;;;;5.13;2.00;;;;;;;;;;5096088;28;20050;-76
2022/01/02 11:58:34;;;;;;;3.80;1.83;;;;;;;;;;5114008;28;20054;-77
2022/01/02 12:01:00;;;;;;;5.53;2.00;;;;;;;;;;5114765;28;20028;-78
2022/01/02 12:03:47;;;;;;;4.10;1.95;;;;;;;;;;5096026;28;20091;-78
2022/01/02 12:06:14;;;;;;;4.25;2.40;;;;;;;;;;5114157;28;20028;-81
2022/01/02 12:08:40;;;;;;;4.50;2.58;;;;;;;;;;5114380;28;20039;-76
2022/01/02 12:11:24;;;;;;;5.47;2.58;;;;;;;;;;5114315;28;20024;-77
2022/01/02 12:14:05;;;;;;;7.03;2.40;;;18.60;87.20;;;;;;5095834;28;20069;-77
2022/01/02 12:16:42;;;;;;;13.02;2.10;;;;;;;;;;5113976;28;20024;-76
2022/01/02 12:19:09;;;;;;;4.82;1.67;;;;;;;;;;5111443;27;20016;-76
2022/01/02 12:21:35;;;;;;;6.65;1.95;;;;;;;;;;5112447;28;20027;-76
2022/01/02 12:24:04;;;;;;;13.45;4.40;;;;;;;;;;5113797;28;20372;-77
2022/01/02 12:26:32;;;;;;;11.20;3.60;;;;;;;;;;5114190;28;20054;-76
2022/01/02 12:29:06;;;;;;;11.30;2.92;;;19.60;87.10;;;;;;5096009;28;20016;-78
2022/01/02 12:31:38;;;;;;;7.53;2.90;;;19.40;85.60;;;;;;5112579;28;20031;-76
2022/01/02 12:34:18;;;;;;;7.88;2.63;;;19.20;85.50;;;;;;5109782;28;20562;-77
2022/01/02 12:36:49;;;;;;;10.65;2.70;;;19.20;85.90;;;;;;5112170;28;20106;-76
2022/01/02 12:39:24;;;;;;;9.50;2.38;;;19.10;86.30;;;;;;5112196;28;20022;-77
2022/01/02 12:41:50;;;;;;;6.63;2.47;;;19.10;86.50;;;;;;5094598;28;20024;-77
2022/01/02 12:44:28;;;;;;;9.07;2.33;;;19.10;86.50;;;;;;5110153;28;20028;-76
2022/01/02 12:46:56;;;;;;;7.22;2.28;;;19.10;86.70;;;;;;5112013;28;20072;-78
2022/01/02 12:49:30;;;;;;;7.53;2.17;;;19.20;87.00;;;;;;5111920;28;20426;-76
2022/01/02 12:52:07;;;;;;;7.72;3.10;;;19.20;87.20;;;;;;5109695;28;20051;-78
2022/01/02 12:54:37;;;;;;;7.10;2.58;;;19.20;86.80;;;;;;5109263;28;20092;-76
2022/01/02 12:57:08;;;;;;;4.47;2.17;;;19.20;87.00;;;;;;5112011;28;20056;-76
2022/01/02 12:59:41;;;;;;;8.45;1.95;;;19.30;87.10;;;;;;5112964;27;20059;-76
2022/01/02 13:02:14;;;;;;;7.18;2.22;;;;;;;;;;5112054;27;20032;-75
2022/01/02 13:04:44;;;;;;;5.55;1.90;;;;;;;;;;5114353;27;20023;-76
2022/01/02 13:07:14;;;;;;;7.43;2.00;;;;;;;;;;5107664;27;20102;-77
2022/01/02 13:09:43;;;;;;;3.47;1.40;;;;;;;;;;5111452;27;20027;-77
2022/01/02 13:12:11;;;;;;;6.53;1.75;;;;;;;;;;5113518;27;20022;-76
2022/01/02 13:14:38;;;;;;;7.63;1.77;;;;;;;;;;5109623;27;20023;-77
2022/01/02 13:17:13;;;;;;;5.45;1.77;;;;;;;;;;5108272;27;20071;-77
2022/01/02 13:19:41;;;;;;;7.30;1.55;;;;;;;;;;5112107;27;20024;-77
2022/01/02 13:22:08;;;;;;;4.30;1.30;;;;;;;;;;5109223;27;20011;-77
2022/01/02 13:24:35;;;;;;;5.38;1.73;;;19.20;86.90;;;;;;5113573;27;20019;-78
2022/01/02 13:27:04;;;;;;;4.45;1.58;;;19.60;85.80;;;;;;5117338;27;20034;-80
2022/01/02 13:29:30;;;;;;;4.57;1.80;;;19.70;86.10;;;;;;5104524;27;20009;-76
2022/01/02 13:31:57;;;;;;;5.90;1.75;;;19.70;85.60;;;;;;5104817;27;20031;-75
2022/01/02 13:34:28;;;;;;;6.03;2.03;;;19.70;85.70;;;;;;5107467;27;20028;-76